sensor_id;sensor_type;location;lat;lon;timestamp;temperature;humidity
13798;DHT22;6970;51.340;3.240;2022-09-24T00:01:36;14.20;99.90
13798;DHT22;6970;51.340;3.240;2022-09-24T00:04:07;14.20;99.90
13798;DHT22;6970;51.340;3.240;2022-09-24T00:06:44;14.20;99.90
13798;DHT22;6970;51.340;3.240;2022-09-24T00:09:13;14.20;99.90
13798;DHT22;6970;51.340;3.240;2022-09-24T00:11:40;14.20;99.90
13798;DHT22;6970;51.340;3.240;2022-09-24T00:14:10;14.20;99.90
13798;DHT22;6970;51.340;3.240;2022-09-24T00:16:38;14.20;99.90
13798;DHT22;6970;51.340;3.240;2022-09-24T00:19:06;14.20;99.90
13798;DHT22;6970;51.340;3.240;2022-09-24T00:21:34;14.30;99.90
13798;DHT22;6970;51.340;3.240;2022-09-24T00:24:04;14.30;99.90
13798;DHT22;6970;51.340;3.240;2022-09-24T00:26:32;14.30;99.90
13798;DHT22;6970;51.340;3.240;2022-09-24T00:29:20;14.30;99.90
13798;DHT22;6970;51.340;3.240;2022-09-24T00:31:48;14.30;99.90
13798;DHT22;6970;51.340;3.240;2022-09-24T00:34:16;14.40;99.90
13798;DHT22;6970;51.340;3.240;2022-09-24T00:36:43;14.40;99.90
13798;DHT22;6970;51.340;3.240;2022-09-24T00:39:14;14.40;99.90
13798;DHT22;6970;51.340;3.240;2022-09-24T00:41:41;14.40;99.90
13798;DHT22;6970;51.340;3.240;2022-09-24T00:47:35;14.40;99.90
13798;DHT22;6970;51.340;3.240;2022-09-24T00:52:39;14.50;99.90
13798;DHT22;6970;51.340;3.240;2022-09-24T00:55:08;14.60;99.90
13798;DHT22;6970;51.340;3.240;2022-09-24T00:57:37;14.60;99.90
13798;DHT22;6970;51.340;3.240;2022-09-24T01:00:05;14.70;99.90
13798;DHT22;6970;51.340;3.240;2022-09-24T01:02:35;14.70;99.90
13798;DHT22;6970;51.340;3.240;2022-09-24T01:05:04;14.70;99.90
13798;DHT22;6970;51.340;3.240;2022-09-24T01:07:31;14.70;99.90
13798;DHT22;6970;51.340;3.240;2022-09-24T01:09:58;14.60;99.90
13798;DHT22;6970;51.340;3.240;2022-09-24T01:12:41;14.60;99.90
13798;DHT22;6970;51.340;3.240;2022-09-24T01:15:21;14.60;99.90
13798;DHT22;6970;51.340;3.240;2022-09-24T01:18:03;14.50;99.90
13798;DHT22;6970;51.340;3.240;2022-09-24T01:23:23;14.50;99.90
13798;DHT22;6970;51.340;3.240;2022-09-24T01:31:37;14.50;99.90
13798;DHT22;6970;51.340;3.240;2022-09-24T01:34:07;14.50;99.90
13798;DHT22;6970;51.340;3.240;2022-09-24T01:36:36;14.40;99.90
13798;DHT22;6970;51.340;3.240;2022-09-24T01:39:05;14.40;99.90
13798;DHT22;6970;51.340;3.240;2022-09-24T01:41:35;14.30;99.90
13798;DHT22;6970;51.340;3.240;2022-09-24T01:44:03;14.40;99.90
13798;DHT22;6970;51.340;3.240;2022-09-24T01:46:37;14.40;99.90
13798;DHT22;6970;51.340;3.240;2022-09-24T01:49:05;14.30;99.90
13798;DHT22;6970;51.340;3.240;2022-09-24T01:54:07;14.30;99.90
13798;DHT22;6970;51.340;3.240;2022-09-24T01:59:40;14.30;99.90
13798;DHT22;6970;51.340;3.240;2022-09-24T02:02:27;14.30;99.90
13798;DHT22;6970;51.340;3.240;2022-09-24T02:05:15;14.30;99.90
13798;DHT22;6970;51.340;3.240;2022-09-24T02:10:18;14.20;99.90
13798;DHT22;6970;51.340;3.240;2022-09-24T02:12:50;14.20;99.90
13798;DHT22;6970;51.340;3.240;2022-09-24T02:15:33;14.20;99.90
13798;DHT22;6970;51.340;3.240;2022-09-24T02:18:06;14.20;99.90
13798;DHT22;6970;51.340;3.240;2022-09-24T02:20:35;14.10;99.90
13798;DHT22;6970;51.340;3.240;2022-09-24T02:23:05;14.20;99.90
13798;DHT22;6970;51.340;3.240;2022-09-24T02:25:38;14.10;99.90
13798;DHT22;6970;51.340;3.240;2022-09-24T02:28:07;14.20;99.90
13798;DHT22;6970;51.340;3.240;2022-09-24T02:30:42;14.20;99.90
13798;DHT22;6970;51.340;3.240;2022-09-24T02:33:12;14.20;99.90
13798;DHT22;6970;51.340;3.240;2022-09-24T02:35:58;14.20;99.90
13798;DHT22;6970;51.340;3.240;2022-09-24T02:38:25;14.20;99.90
13798;DHT22;6970;51.340;3.240;2022-09-24T02:40:52;14.20;99.90
13798;DHT22;6970;51.340;3.240;2022-09-24T02:43:21;14.20;99.90
13798;DHT22;6970;51.340;3.240;2022-09-24T02:45:48;14.20;99.90
13798;DHT22;6970;51.340;3.240;2022-09-24T02:48:14;14.20;99.90
13798;DHT22;6970;51.340;3.240;2022-09-24T02:50:41;14.20;99.90
13798;DHT22;6970;51.340;3.240;2022-09-24T02:53:08;14.20;99.90
13798;DHT22;6970;51.340;3.240;2022-09-24T02:55:35;14.20;99.90
13798;DHT22;6970;51.340;3.240;2022-09-24T02:58:02;14.20;99.90
13798;DHT22;6970;51.340;3.240;2022-09-24T03:00:29;14.20;99.90
13798;DHT22;6970;51.340;3.240;2022-09-24T03:02:56;14.30;99.90
13798;DHT22;6970;51.340;3.240;2022-09-24T03:05:23;14.30;99.90
13798;DHT22;6970;51.340;3.240;2022-09-24T03:07:50;14.30;99.90
13798;DHT22;6970;51.340;3.240;2022-09-24T03:10:17;14.40;99.90
13798;DHT22;6970;51.340;3.240;2022-09-24T03:12:44;14.40;99.90
13798;DHT22;6970;51.340;3.240;2022-09-24T03:15:11;14.40;99.90
13798;DHT22;6970;51.340;3.240;2022-09-24T03:17:38;14.40;99.90
13798;DHT22;6970;51.340;3.240;2022-09-24T03:20:06;14.40;99.90
13798;DHT22;6970;51.340;3.240;2022-09-24T03:22:33;14.50;99.90
13798;DHT22;6970;51.340;3.240;2022-09-24T03:24:59;14.50;99.90
13798;DHT22;6970;51.340;3.240;2022-09-24T03:27:28;14.50;99.90
13798;DHT22;6970;51.340;3.240;2022-09-24T03:29:56;14.50;99.90
13798;DHT22;6970;51.340;3.240;2022-09-24T03:32:42;14.50;99.90
13798;DHT22;6970;51.340;3.240;2022-09-24T03:35:09;14.40;99.90
13798;DHT22;6970;51.340;3.240;2022-09-24T03:37:37;14.40;99.90
13798;DHT22;6970;51.340;3.240;2022-09-24T03:40:04;14.40;99.90
13798;DHT22;6970;51.340;3.240;2022-09-24T03:42:33;14.40;99.90
13798;DHT22;6970;51.340;3.240;2022-09-24T03:45:00;14.50;99.90
13798;DHT22;6970;51.340;3.240;2022-09-24T03:47:27;14.50;99.90
13798;DHT22;6970;51.340;3.240;2022-09-24T03:49:55;14.50;99.90
13798;DHT22;6970;51.340;3.240;2022-09-24T03:52:22;14.50;99.90
13798;DHT22;6970;51.340;3.240;2022-09-24T03:54:50;14.50;99.90
13798;DHT22;6970;51.340;3.240;2022-09-24T03:57:17;14.50;99.90
13798;DHT22;6970;51.340;3.240;2022-09-24T03:59:44;14.50;99.90
13798;DHT22;6970;51.340;3.240;2022-09-24T04:02:12;14.50;99.90
13798;DHT22;6970;51.340;3.240;2022-09-24T04:04:39;14.50;99.90
13798;DHT22;6970;51.340;3.240;2022-09-24T04:07:06;14.60;99.90
13798;DHT22;6970;51.340;3.240;2022-09-24T04:09:33;14.60;99.90
13798;DHT22;6970;51.340;3.240;2022-09-24T04:12:00;14.60;99.90
13798;DHT22;6970;51.340;3.240;2022-09-24T04:14:27;14.60;99.90
13798;DHT22;6970;51.340;3.240;2022-09-24T04:16:55;14.60;99.90
13798;DHT22;6970;51.340;3.240;2022-09-24T04:19:22;14.60;99.90
13798;DHT22;6970;51.340;3.240;2022-09-24T04:21:49;14.70;99.90
13798;DHT22;6970;51.340;3.240;2022-09-24T04:24:15;14.70;99.90
13798;DHT22;6970;51.340;3.240;2022-09-24T04:26:43;14.70;99.90
13798;DHT22;6970;51.340;3.240;2022-09-24T04:29:09;14.60;99.90
13798;DHT22;6970;51.340;3.240;2022-09-24T04:31:36;14.70;99.90
13798;DHT22;6970;51.340;3.240;2022-09-24T04:34:05;14.70;99.90
13798;DHT22;6970;51.340;3.240;2022-09-24T04:36:32;14.70;99.90
13798;DHT22;6970;51.340;3.240;2022-09-24T04:38:59;14.70;99.90
13798;DHT22;6970;51.340;3.240;2022-09-24T04:41:26;14.90;99.90
13798;DHT22;6970;51.340;3.240;2022-09-24T04:43:52;15.00;99.90
13798;DHT22;6970;51.340;3.240;2022-09-24T04:46:19;15.20;99.90
13798;DHT22;6970;51.340;3.240;2022-09-24T04:48:46;15.30;99.90
13798;DHT22;6970;51.340;3.240;2022-09-24T04:51:13;15.40;99.90
13798;DHT22;6970;51.340;3.240;2022-09-24T04:53:41;15.50;99.90
13798;DHT22;6970;51.340;3.240;2022-09-24T04:56:08;15.60;99.90
13798;DHT22;6970;51.340;3.240;2022-09-24T04:58:38;15.70;99.90
13798;DHT22;6970;51.340;3.240;2022-09-24T05:01:04;15.80;99.90
13798;DHT22;6970;51.340;3.240;2022-09-24T05:03:32;15.80;99.90
13798;DHT22;6970;51.340;3.240;2022-09-24T05:05:59;15.80;99.90
13798;DHT22;6970;51.340;3.240;2022-09-24T05:08:27;15.90;99.90
13798;DHT22;6970;51.340;3.240;2022-09-24T05:10:54;15.90;99.90
13798;DHT22;6970;51.340;3.240;2022-09-24T05:13:21;15.80;99.90
13798;DHT22;6970;51.340;3.240;2022-09-24T05:15:48;15.90;99.90
13798;DHT22;6970;51.340;3.240;2022-09-24T05:18:15;15.90;99.90
13798;DHT22;6970;51.340;3.240;2022-09-24T05:20:42;15.90;99.90
13798;DHT22;6970;51.340;3.240;2022-09-24T05:23:09;15.90;99.90
13798;DHT22;6970;51.340;3.240;2022-09-24T05:25:36;15.90;99.90
13798;DHT22;6970;51.340;3.240;2022-09-24T05:28:23;15.90;99.90
13798;DHT22;6970;51.340;3.240;2022-09-24T05:30:50;15.90;99.90
13798;DHT22;6970;51.340;3.240;2022-09-24T05:33:18;15.90;99.90
13798;DHT22;6970;51.340;3.240;2022-09-24T05:35:52;16.00;99.90
13798;DHT22;6970;51.340;3.240;2022-09-24T05:38:19;16.00;99.90
13798;DHT22;6970;51.340;3.240;2022-09-24T05:40:46;16.00;99.90
13798;DHT22;6970;51.340;3.240;2022-09-24T05:43:14;16.00;99.90
13798;DHT22;6970;51.340;3.240;2022-09-24T05:45:46;16.00;99.90
13798;DHT22;6970;51.340;3.240;2022-09-24T05:48:16;16.00;99.90
13798;DHT22;6970;51.340;3.240;2022-09-24T05:50:44;16.00;99.90
13798;DHT22;6970;51.340;3.240;2022-09-24T05:53:11;16.00;99.90
13798;DHT22;6970;51.340;3.240;2022-09-24T05:55:38;16.10;99.90
13798;DHT22;6970;51.340;3.240;2022-09-24T05:58:07;16.10;99.90
13798;DHT22;6970;51.340;3.240;2022-09-24T06:00:35;16.10;99.90
13798;DHT22;6970;51.340;3.240;2022-09-24T06:03:05;16.10;99.90
13798;DHT22;6970;51.340;3.240;2022-09-24T06:05:33;16.10;99.90
13798;DHT22;6970;51.340;3.240;2022-09-24T06:08:04;16.10;99.90
13798;DHT22;6970;51.340;3.240;2022-09-24T06:10:34;16.10;99.90
13798;DHT22;6970;51.340;3.240;2022-09-24T06:13:01;16.10;99.90
13798;DHT22;6970;51.340;3.240;2022-09-24T06:15:29;16.20;99.90
13798;DHT22;6970;51.340;3.240;2022-09-24T06:17:56;16.20;99.90
13798;DHT22;6970;51.340;3.240;2022-09-24T06:20:23;16.20;99.90
13798;DHT22;6970;51.340;3.240;2022-09-24T06:22:54;16.30;99.90
13798;DHT22;6970;51.340;3.240;2022-09-24T06:25:21;16.40;99.90
13798;DHT22;6970;51.340;3.240;2022-09-24T06:27:53;16.40;99.90
13798;DHT22;6970;51.340;3.240;2022-09-24T06:30:32;16.40;99.90
13798;DHT22;6970;51.340;3.240;2022-09-24T06:33:04;16.40;99.90
13798;DHT22;6970;51.340;3.240;2022-09-24T06:35:39;16.40;99.90
13798;DHT22;6970;51.340;3.240;2022-09-24T06:38:10;16.30;99.90
13798;DHT22;6970;51.340;3.240;2022-09-24T06:40:41;16.40;99.90
13798;DHT22;6970;51.340;3.240;2022-09-24T06:43:11;16.30;99.90
13798;DHT22;6970;51.340;3.240;2022-09-24T06:45:42;16.30;99.90
13798;DHT22;6970;51.340;3.240;2022-09-24T06:48:12;16.30;99.90
13798;DHT22;6970;51.340;3.240;2022-09-24T06:50:43;16.30;99.90
13798;DHT22;6970;51.340;3.240;2022-09-24T06:53:12;16.20;99.90
13798;DHT22;6970;51.340;3.240;2022-09-24T06:55:42;16.20;99.90
13798;DHT22;6970;51.340;3.240;2022-09-24T06:58:17;16.20;99.90
13798;DHT22;6970;51.340;3.240;2022-09-24T07:00:55;16.20;99.90
13798;DHT22;6970;51.340;3.240;2022-09-24T07:03:26;16.20;99.90
13798;DHT22;6970;51.340;3.240;2022-09-24T07:05:59;16.10;99.90
13798;DHT22;6970;51.340;3.240;2022-09-24T07:08:28;16.10;99.90
13798;DHT22;6970;51.340;3.240;2022-09-24T07:10:55;16.20;99.90
13798;DHT22;6970;51.340;3.240;2022-09-24T07:13:24;16.30;99.90
13798;DHT22;6970;51.340;3.240;2022-09-24T07:15:55;16.40;99.90
13798;DHT22;6970;51.340;3.240;2022-09-24T07:18:25;16.60;99.90
13798;DHT22;6970;51.340;3.240;2022-09-24T07:20:53;16.80;99.90
13798;DHT22;6970;51.340;3.240;2022-09-24T07:23:22;16.80;99.90
13798;DHT22;6970;51.340;3.240;2022-09-24T07:25:54;16.90;99.90
13798;DHT22;6970;51.340;3.240;2022-09-24T07:28:24;16.90;99.90
13798;DHT22;6970;51.340;3.240;2022-09-24T07:30:58;16.90;99.90
13798;DHT22;6970;51.340;3.240;2022-09-24T07:33:27;17.00;99.90
13798;DHT22;6970;51.340;3.240;2022-09-24T07:35:55;17.20;99.90
13798;DHT22;6970;51.340;3.240;2022-09-24T07:38:23;17.60;99.90
13798;DHT22;6970;51.340;3.240;2022-09-24T07:40:50;18.00;99.90
13798;DHT22;6970;51.340;3.240;2022-09-24T07:43:20;18.40;99.90
13798;DHT22;6970;51.340;3.240;2022-09-24T07:45:48;18.70;99.90
13798;DHT22;6970;51.340;3.240;2022-09-24T07:48:18;18.70;99.90
13798;DHT22;6970;51.340;3.240;2022-09-24T07:50:51;18.50;99.90
13798;DHT22;6970;51.340;3.240;2022-09-24T07:53:21;18.40;99.90
13798;DHT22;6970;51.340;3.240;2022-09-24T07:55:53;18.20;99.90
13798;DHT22;6970;51.340;3.240;2022-09-24T07:58:25;18.10;99.90
13798;DHT22;6970;51.340;3.240;2022-09-24T08:01:01;18.20;99.90
13798;DHT22;6970;51.340;3.240;2022-09-24T08:03:29;18.20;99.90
13798;DHT22;6970;51.340;3.240;2022-09-24T08:05:56;18.20;99.90
13798;DHT22;6970;51.340;3.240;2022-09-24T08:08:25;18.20;99.90
13798;DHT22;6970;51.340;3.240;2022-09-24T08:10:55;18.10;99.90
13798;DHT22;6970;51.340;3.240;2022-09-24T08:13:23;18.00;99.90
13798;DHT22;6970;51.340;3.240;2022-09-24T08:16:00;17.90;99.90
13798;DHT22;6970;51.340;3.240;2022-09-24T08:18:31;17.80;99.90
13798;DHT22;6970;51.340;3.240;2022-09-24T08:21:02;17.70;99.90
13798;DHT22;6970;51.340;3.240;2022-09-24T08:23:31;17.60;99.90
13798;DHT22;6970;51.340;3.240;2022-09-24T08:25:58;17.50;99.90
13798;DHT22;6970;51.340;3.240;2022-09-24T08:28:26;17.40;99.90
13798;DHT22;6970;51.340;3.240;2022-09-24T08:30:57;17.50;99.90
13798;DHT22;6970;51.340;3.240;2022-09-24T08:33:28;17.50;99.90
13798;DHT22;6970;51.340;3.240;2022-09-24T08:36:04;17.60;99.90
13798;DHT22;6970;51.340;3.240;2022-09-24T08:38:32;17.60;99.90
13798;DHT22;6970;51.340;3.240;2022-09-24T08:46:24;18.10;99.90
13798;DHT22;6970;51.340;3.240;2022-09-24T08:49:20;18.30;99.90
13798;DHT22;6970;51.340;3.240;2022-09-24T08:52:27;18.40;99.90
13798;DHT22;6970;51.340;3.240;2022-09-24T08:54:46;18.40;99.90
13798;DHT22;6970;51.340;3.240;2022-09-24T08:57:17;18.40;99.90
13798;DHT22;6970;51.340;3.240;2022-09-24T08:59:50;18.40;99.90
13798;DHT22;6970;51.340;3.240;2022-09-24T09:07:59;18.20;99.90
13798;DHT22;6970;51.340;3.240;2022-09-24T09:10:32;18.20;99.90
13798;DHT22;6970;51.340;3.240;2022-09-24T09:13:20;18.10;99.90
13798;DHT22;6970;51.340;3.240;2022-09-24T09:15:58;18.10;99.90
13798;DHT22;6970;51.340;3.240;2022-09-24T09:18:33;18.20;99.90
13798;DHT22;6970;51.340;3.240;2022-09-24T09:21:16;18.30;99.90
13798;DHT22;6970;51.340;3.240;2022-09-24T09:23:49;18.30;99.90
13798;DHT22;6970;51.340;3.240;2022-09-24T09:26:17;18.40;99.90
13798;DHT22;6970;51.340;3.240;2022-09-24T09:28:47;18.40;99.90
13798;DHT22;6970;51.340;3.240;2022-09-24T09:42:31;18.30;99.90
13798;DHT22;6970;51.340;3.240;2022-09-24T09:45:19;18.20;99.90
13798;DHT22;6970;51.340;3.240;2022-09-24T09:47:55;18.10;99.90
13798;DHT22;6970;51.340;3.240;2022-09-24T09:50:35;18.10;99.90
13798;DHT22;6970;51.340;3.240;2022-09-24T09:53:03;18.10;99.90
13798;DHT22;6970;51.340;3.240;2022-09-24T09:55:35;18.30;99.90
13798;DHT22;6970;51.340;3.240;2022-09-24T10:00:42;18.80;99.90
13798;DHT22;6970;51.340;3.240;2022-09-24T10:03:30;19.00;99.90
13798;DHT22;6970;51.340;3.240;2022-09-24T10:06:01;19.10;99.90
13798;DHT22;6970;51.340;3.240;2022-09-24T10:08:29;19.30;99.90
13798;DHT22;6970;51.340;3.240;2022-09-24T10:10:58;19.50;99.90
13798;DHT22;6970;51.340;3.240;2022-09-24T10:13:26;19.80;99.90
13798;DHT22;6970;51.340;3.240;2022-09-24T10:15:55;19.90;99.90
13798;DHT22;6970;51.340;3.240;2022-09-24T10:18:27;20.20;99.90
13798;DHT22;6970;51.340;3.240;2022-09-24T10:20:57;20.40;99.90
13798;DHT22;6970;51.340;3.240;2022-09-24T10:26:04;21.10;99.90
13798;DHT22;6970;51.340;3.240;2022-09-24T10:28:33;21.40;99.90
13798;DHT22;6970;51.340;3.240;2022-09-24T10:31:23;21.70;99.90
13798;DHT22;6970;51.340;3.240;2022-09-24T10:33:54;22.40;99.90
13798;DHT22;6970;51.340;3.240;2022-09-24T10:36:25;22.80;99.10
13798;DHT22;6970;51.340;3.240;2022-09-24T10:39:13;23.00;98.00
13798;DHT22;6970;51.340;3.240;2022-09-24T10:41:48;23.10;97.30
13798;DHT22;6970;51.340;3.240;2022-09-24T10:44:16;23.40;97.50
13798;DHT22;6970;51.340;3.240;2022-09-24T10:55:38;25.10;94.20
13798;DHT22;6970;51.340;3.240;2022-09-24T11:06:18;24.10;92.90
13798;DHT22;6970;51.340;3.240;2022-09-24T11:34:07;23.90;92.70
13798;DHT22;6970;51.340;3.240;2022-09-24T11:52:51;23.10;93.80
13798;DHT22;6970;51.340;3.240;2022-09-24T11:55:34;23.00;94.00
13798;DHT22;6970;51.340;3.240;2022-09-24T11:58:45;23.10;94.30
13798;DHT22;6970;51.340;3.240;2022-09-24T12:01:22;23.10;94.10
13798;DHT22;6970;51.340;3.240;2022-09-24T12:06:38;23.30;94.30
13798;DHT22;6970;51.340;3.240;2022-09-24T12:09:19;23.50;94.20
13798;DHT22;6970;51.340;3.240;2022-09-24T12:11:56;23.60;93.70
13798;DHT22;6970;51.340;3.240;2022-09-24T12:14:29;23.70;93.80
13798;DHT22;6970;51.340;3.240;2022-09-24T12:17:05;23.70;93.70
13798;DHT22;6970;51.340;3.240;2022-09-24T12:19:47;23.60;93.80
13798;DHT22;6970;51.340;3.240;2022-09-24T12:22:17;23.50;93.60
13798;DHT22;6970;51.340;3.240;2022-09-24T12:24:51;23.40;93.50
13798;DHT22;6970;51.340;3.240;2022-09-24T12:27:33;23.40;93.50
13798;DHT22;6970;51.340;3.240;2022-09-24T12:36:07;23.10;93.40
13798;DHT22;6970;51.340;3.240;2022-09-24T12:38:44;22.80;93.40
13798;DHT22;6970;51.340;3.240;2022-09-24T12:46:25;22.50;93.80
13798;DHT22;6970;51.340;3.240;2022-09-24T12:48:54;22.50;93.10
13798;DHT22;6970;51.340;3.240;2022-09-24T12:51:22;22.50;93.00
13798;DHT22;6970;51.340;3.240;2022-09-24T12:54:14;22.50;93.10
13798;DHT22;6970;51.340;3.240;2022-09-24T12:56:43;22.60;92.20
13798;DHT22;6970;51.340;3.240;2022-09-24T12:59:26;22.70;92.40
13798;DHT22;6970;51.340;3.240;2022-09-24T13:01:54;22.90;92.30
13798;DHT22;6970;51.340;3.240;2022-09-24T13:04:32;22.90;92.30
13798;DHT22;6970;51.340;3.240;2022-09-24T13:06:59;22.90;92.40
13798;DHT22;6970;51.340;3.240;2022-09-24T13:09:38;22.90;91.80
13798;DHT22;6970;51.340;3.240;2022-09-24T13:12:28;22.90;92.30
13798;DHT22;6970;51.340;3.240;2022-09-24T13:17:30;22.90;92.30
13798;DHT22;6970;51.340;3.240;2022-09-24T13:20:03;22.80;92.20
13798;DHT22;6970;51.340;3.240;2022-09-24T13:22:36;22.80;92.00
13798;DHT22;6970;51.340;3.240;2022-09-24T13:27:35;22.80;92.20
13798;DHT22;6970;51.340;3.240;2022-09-24T13:30:20;22.80;91.70
13798;DHT22;6970;51.340;3.240;2022-09-24T13:32:56;22.60;91.50
13798;DHT22;6970;51.340;3.240;2022-09-24T13:35:30;22.50;91.60
13798;DHT22;6970;51.340;3.240;2022-09-24T13:38:20;22.50;92.00
13798;DHT22;6970;51.340;3.240;2022-09-24T13:40:54;22.50;92.20
13798;DHT22;6970;51.340;3.240;2022-09-24T13:43:39;22.60;92.60
13798;DHT22;6970;51.340;3.240;2022-09-24T13:46:11;22.60;92.80
13798;DHT22;6970;51.340;3.240;2022-09-24T13:48:48;22.40;92.60
13798;DHT22;6970;51.340;3.240;2022-09-24T13:51:17;22.30;92.70
13798;DHT22;6970;51.340;3.240;2022-09-24T13:53:57;22.30;92.40
13798;DHT22;6970;51.340;3.240;2022-09-24T13:56:28;22.30;92.50
13798;DHT22;6970;51.340;3.240;2022-09-24T13:59:03;22.40;93.10
13798;DHT22;6970;51.340;3.240;2022-09-24T14:01:40;22.40;92.80
13798;DHT22;6970;51.340;3.240;2022-09-24T14:04:19;22.40;93.20
13798;DHT22;6970;51.340;3.240;2022-09-24T14:06:55;22.40;92.90
13798;DHT22;6970;51.340;3.240;2022-09-24T14:09:29;22.30;92.80
13798;DHT22;6970;51.340;3.240;2022-09-24T14:12:10;22.30;92.70
13798;DHT22;6970;51.340;3.240;2022-09-24T14:14:42;22.20;92.60
13798;DHT22;6970;51.340;3.240;2022-09-24T14:17:13;22.10;92.90
13798;DHT22;6970;51.340;3.240;2022-09-24T14:19:41;22.00;92.70
13798;DHT22;6970;51.340;3.240;2022-09-24T14:22:33;21.90;92.90
13798;DHT22;6970;51.340;3.240;2022-09-24T14:25:13;21.80;92.90
13798;DHT22;6970;51.340;3.240;2022-09-24T14:27:47;21.70;92.90
13798;DHT22;6970;51.340;3.240;2022-09-24T14:30:23;21.60;92.80
13798;DHT22;6970;51.340;3.240;2022-09-24T14:32:58;21.50;93.30
13798;DHT22;6970;51.340;3.240;2022-09-24T14:35:33;21.60;93.60
13798;DHT22;6970;51.340;3.240;2022-09-24T14:38:07;21.40;93.60
13798;DHT22;6970;51.340;3.240;2022-09-24T14:40:49;21.30;92.80
13798;DHT22;6970;51.340;3.240;2022-09-24T14:43:21;21.20;92.50
13798;DHT22;6970;51.340;3.240;2022-09-24T14:45:49;21.20;93.10
13798;DHT22;6970;51.340;3.240;2022-09-24T14:48:34;21.20;93.30
13798;DHT22;6970;51.340;3.240;2022-09-24T14:51:01;21.10;93.60
13798;DHT22;6970;51.340;3.240;2022-09-24T14:53:31;21.00;93.60
13798;DHT22;6970;51.340;3.240;2022-09-24T14:56:19;20.90;93.90
13798;DHT22;6970;51.340;3.240;2022-09-24T14:58:46;20.90;94.00
13798;DHT22;6970;51.340;3.240;2022-09-24T15:01:15;20.80;94.60
13798;DHT22;6970;51.340;3.240;2022-09-24T15:03:55;20.60;94.80
13798;DHT22;6970;51.340;3.240;2022-09-24T15:06:43;20.50;95.40
13798;DHT22;6970;51.340;3.240;2022-09-24T15:09:26;20.40;95.50
13798;DHT22;6970;51.340;3.240;2022-09-24T15:11:54;20.40;95.30
13798;DHT22;6970;51.340;3.240;2022-09-24T15:14:32;20.30;95.30
13798;DHT22;6970;51.340;3.240;2022-09-24T15:17:20;20.30;95.40
13798;DHT22;6970;51.340;3.240;2022-09-24T15:19:47;20.30;95.40
13798;DHT22;6970;51.340;3.240;2022-09-24T15:22:14;20.30;95.60
13798;DHT22;6970;51.340;3.240;2022-09-24T15:24:41;20.30;96.00
13798;DHT22;6970;51.340;3.240;2022-09-24T15:29:49;20.30;96.20
13798;DHT22;6970;51.340;3.240;2022-09-24T15:32:17;20.20;96.40
13798;DHT22;6970;51.340;3.240;2022-09-24T15:34:45;20.10;96.70
13798;DHT22;6970;51.340;3.240;2022-09-24T15:37:18;20.10;96.70
13798;DHT22;6970;51.340;3.240;2022-09-24T15:39:46;20.00;96.90
13798;DHT22;6970;51.340;3.240;2022-09-24T15:42:19;20.00;96.90
13798;DHT22;6970;51.340;3.240;2022-09-24T15:44:47;20.00;97.30
13798;DHT22;6970;51.340;3.240;2022-09-24T15:47:17;20.00;97.30
13798;DHT22;6970;51.340;3.240;2022-09-24T15:49:44;19.90;96.60
13798;DHT22;6970;51.340;3.240;2022-09-24T15:52:18;19.70;96.70
13798;DHT22;6970;51.340;3.240;2022-09-24T15:54:54;19.50;97.10
13798;DHT22;6970;51.340;3.240;2022-09-24T15:57:21;19.40;97.50
13798;DHT22;6970;51.340;3.240;2022-09-24T15:59:48;19.30;97.90
13798;DHT22;6970;51.340;3.240;2022-09-24T16:02:19;19.30;97.60
13798;DHT22;6970;51.340;3.240;2022-09-24T16:04:47;19.30;97.30
13798;DHT22;6970;51.340;3.240;2022-09-24T16:07:14;19.30;96.90
13798;DHT22;6970;51.340;3.240;2022-09-24T16:09:41;19.20;97.10
13798;DHT22;6970;51.340;3.240;2022-09-24T16:12:13;19.20;97.20
13798;DHT22;6970;51.340;3.240;2022-09-24T16:14:41;19.20;97.60
13798;DHT22;6970;51.340;3.240;2022-09-24T16:17:08;19.10;97.70
13798;DHT22;6970;51.340;3.240;2022-09-24T16:19:36;19.10;97.60
13798;DHT22;6970;51.340;3.240;2022-09-24T16:22:03;19.00;97.70
13798;DHT22;6970;51.340;3.240;2022-09-24T16:24:33;19.00;97.90
13798;DHT22;6970;51.340;3.240;2022-09-24T16:27:01;18.80;97.90
13798;DHT22;6970;51.340;3.240;2022-09-24T16:29:28;18.70;98.00
13798;DHT22;6970;51.340;3.240;2022-09-24T16:31:55;18.50;97.90
13798;DHT22;6970;51.340;3.240;2022-09-24T16:34:22;18.50;98.20
13798;DHT22;6970;51.340;3.240;2022-09-24T16:36:49;18.40;98.40
13798;DHT22;6970;51.340;3.240;2022-09-24T16:39:16;18.30;99.00
13798;DHT22;6970;51.340;3.240;2022-09-24T16:41:43;18.30;98.70
13798;DHT22;6970;51.340;3.240;2022-09-24T16:44:10;18.20;98.70
13798;DHT22;6970;51.340;3.240;2022-09-24T16:46:44;18.10;99.00
13798;DHT22;6970;51.340;3.240;2022-09-24T16:49:11;18.10;99.40
13798;DHT22;6970;51.340;3.240;2022-09-24T16:51:38;18.00;99.70
13798;DHT22;6970;51.340;3.240;2022-09-24T16:54:06;17.90;99.60
13798;DHT22;6970;51.340;3.240;2022-09-24T16:56:33;17.80;99.90
13798;DHT22;6970;51.340;3.240;2022-09-24T16:59:00;17.70;99.80
13798;DHT22;6970;51.340;3.240;2022-09-24T17:01:27;17.70;99.50
13798;DHT22;6970;51.340;3.240;2022-09-24T17:03:55;17.60;99.70
13798;DHT22;6970;51.340;3.240;2022-09-24T17:06:28;17.60;99.90
13798;DHT22;6970;51.340;3.240;2022-09-24T17:08:56;17.50;99.90
13798;DHT22;6970;51.340;3.240;2022-09-24T17:11:41;17.50;99.90
13798;DHT22;6970;51.340;3.240;2022-09-24T17:14:09;17.40;99.90
13798;DHT22;6970;51.340;3.240;2022-09-24T17:16:40;17.30;99.50
13798;DHT22;6970;51.340;3.240;2022-09-24T17:19:09;17.30;99.00
13798;DHT22;6970;51.340;3.240;2022-09-24T17:21:39;17.20;99.10
13798;DHT22;6970;51.340;3.240;2022-09-24T17:24:06;17.20;99.60
13798;DHT22;6970;51.340;3.240;2022-09-24T17:26:34;17.20;99.60
13798;DHT22;6970;51.340;3.240;2022-09-24T17:29:01;17.10;99.90
13798;DHT22;6970;51.340;3.240;2022-09-24T17:31:28;17.10;99.90
13798;DHT22;6970;51.340;3.240;2022-09-24T17:34:01;17.00;99.90
13798;DHT22;6970;51.340;3.240;2022-09-24T17:36:30;17.00;99.90
13798;DHT22;6970;51.340;3.240;2022-09-24T17:38:58;17.00;99.90
13798;DHT22;6970;51.340;3.240;2022-09-24T17:41:26;16.90;99.90
13798;DHT22;6970;51.340;3.240;2022-09-24T17:43:58;16.90;99.90
13798;DHT22;6970;51.340;3.240;2022-09-24T17:46:30;16.90;99.90
13798;DHT22;6970;51.340;3.240;2022-09-24T17:48:59;16.80;99.90
13798;DHT22;6970;51.340;3.240;2022-09-24T17:51:31;16.80;99.90
13798;DHT22;6970;51.340;3.240;2022-09-24T17:54:00;16.80;99.90
13798;DHT22;6970;51.340;3.240;2022-09-24T17:56:29;16.70;99.90
13798;DHT22;6970;51.340;3.240;2022-09-24T17:58:57;16.70;99.90
13798;DHT22;6970;51.340;3.240;2022-09-24T18:01:27;16.70;99.90
13798;DHT22;6970;51.340;3.240;2022-09-24T18:03:56;16.70;99.90
13798;DHT22;6970;51.340;3.240;2022-09-24T18:06:25;16.60;99.90
13798;DHT22;6970;51.340;3.240;2022-09-24T18:08:59;16.60;99.90
13798;DHT22;6970;51.340;3.240;2022-09-24T18:11:29;16.60;99.90
13798;DHT22;6970;51.340;3.240;2022-09-24T18:13:58;16.60;99.90
13798;DHT22;6970;51.340;3.240;2022-09-24T18:16:27;16.60;99.90
13798;DHT22;6970;51.340;3.240;2022-09-24T18:18:56;16.50;99.90
13798;DHT22;6970;51.340;3.240;2022-09-24T18:21:23;16.50;99.90